<?xml version="1.0" encoding="UTF-8" standalone="no" ?>
<gpx xmlns="http://www.topografix.com/GPX/1/1" xmlns:xsi="http://www.w3.org/2001/XMLSchema-instance" xsi:schemaLocation="http://www.topografix.com/GPX/1/1 http://www.topografix.com/GPX/1/1/gpx.xsd" version="1.1" creator="VisuGPX - https://www.visugpx.com">
  <metadata>
    <name>MN Vincennes Modérée J1</name>
    <desc><![CDATA[Marche Nordique dans le bois de Vincennes, à allure modérée, avec Jean.]]></desc>
  </metadata>
  <trk>
    <name><![CDATA[MN RIF Vincennes ]]></name>
    <cmt><![CDATA[Modérée Jean]]></cmt>
    <desc><![CDATA[comment ...]]></desc>
    <trkseg>
      <trkpt lat="48.83973" lon="2.43661">
        <ele>42</ele>
        <time>2014-05-04T09:40:49Z</time>
      </trkpt>
      <trkpt lat="48.8396" lon="2.43632">
        <ele>46</ele>
        <time>2014-05-04T09:46:18Z</time>
      </trkpt>
      <trkpt lat="48.83949" lon="2.43602">
        <ele>46</ele>
        <time>2014-05-04T09:46:40Z</time>
      </trkpt>
      <trkpt lat="48.83955" lon="2.43532">
        <ele>42</ele>
        <time>2014-05-04T09:47:13Z</time>
      </trkpt>
      <trkpt lat="48.83959" lon="2.43499">
        <ele>39</ele>
        <time>2014-05-04T09:47:27Z</time>
      </trkpt>
      <trkpt lat="48.83964" lon="2.43465">
        <ele>43</ele>
        <time>2014-05-04T09:47:45Z</time>
      </trkpt>
      <trkpt lat="48.84003" lon="2.43428">
        <ele>42</ele>
        <time>2014-05-04T09:48:18Z</time>
      </trkpt>
      <trkpt lat="48.83998" lon="2.43393">
        <ele>43</ele>
        <time>2014-05-04T09:48:48Z</time>
      </trkpt>
      <trkpt lat="48.83981" lon="2.4337">
        <ele>44</ele>
        <time>2014-05-04T09:49:07Z</time>
      </trkpt>
      <trkpt lat="48.8396" lon="2.43357">
        <ele>45</ele>
        <time>2014-05-04T09:49:22Z</time>
      </trkpt>
      <trkpt lat="48.83938" lon="2.43363">
        <ele>43</ele>
        <time>2014-05-04T09:49:38Z</time>
      </trkpt>
      <trkpt lat="48.83932" lon="2.4333">
        <ele>44</ele>
        <time>2014-05-04T09:50:10Z</time>
      </trkpt>
      <trkpt lat="48.83944" lon="2.43299">
        <ele>41</ele>
        <time>2014-05-04T09:50:25Z</time>
      </trkpt>
      <trkpt lat="48.83958" lon="2.43272">
        <ele>44</ele>
        <time>2014-05-04T09:50:41Z</time>
      </trkpt>
      <trkpt lat="48.83981" lon="2.43263">
        <ele>44</ele>
        <time>2014-05-04T09:51:01Z</time>
      </trkpt>
      <trkpt lat="48.83984" lon="2.43229">
        <ele>33</ele>
        <time>2014-05-04T09:51:27Z</time>
      </trkpt>
      <trkpt lat="48.83972" lon="2.432">
        <ele>40</ele>
        <time>2014-05-04T09:51:49Z</time>
      </trkpt>
      <trkpt lat="48.8395" lon="2.43193">
        <ele>43</ele>
        <time>2014-05-04T09:52:08Z</time>
      </trkpt>
      <trkpt lat="48.83903" lon="2.43193">
        <ele>42</ele>
        <time>2014-05-04T09:52:35Z</time>
      </trkpt>
      <trkpt lat="48.8388" lon="2.43196">
        <ele>45</ele>
        <time>2014-05-04T09:52:46Z</time>
      </trkpt>
      <trkpt lat="48.83838" lon="2.43171">
        <ele>45</ele>
        <time>2014-05-04T09:53:21Z</time>
      </trkpt>
      <trkpt lat="48.83815" lon="2.43173">
        <ele>48</ele>
        <time>2014-05-04T09:53:34Z</time>
      </trkpt>
      <trkpt lat="48.83746" lon="2.4316">
        <ele>45</ele>
        <time>2014-05-04T09:54:18Z</time>
      </trkpt>
      <trkpt lat="48.83723" lon="2.43156">
        <ele>45</ele>
        <time>2014-05-04T09:54:30Z</time>
      </trkpt>
      <trkpt lat="48.83677" lon="2.43149">
        <ele>46</ele>
        <time>2014-05-04T09:55:02Z</time>
      </trkpt>
      <trkpt lat="48.83653" lon="2.43149">
        <ele>48</ele>
        <time>2014-05-04T09:55:15Z</time>
      </trkpt>
      <trkpt lat="48.83585" lon="2.43138">
        <ele>41</ele>
        <time>2014-05-04T09:56:00Z</time>
      </trkpt>
      <trkpt lat="48.83562" lon="2.43132">
        <ele>43</ele>
        <time>2014-05-04T09:56:16Z</time>
      </trkpt>
      <trkpt lat="48.83562" lon="2.43097">
        <ele>43</ele>
        <time>2014-05-04T09:59:12Z</time>
      </trkpt>
      <trkpt lat="48.83571" lon="2.43029">
        <ele>42</ele>
        <time>2014-05-04T09:59:53Z</time>
      </trkpt>
      <trkpt lat="48.83579" lon="2.4296">
        <ele>40</ele>
        <time>2014-05-04T10:00:34Z</time>
      </trkpt>
      <trkpt lat="48.83588" lon="2.4289">
        <ele>41</ele>
        <time>2014-05-04T10:01:07Z</time>
      </trkpt>
      <trkpt lat="48.83596" lon="2.42819">
        <ele>43</ele>
        <time>2014-05-04T10:01:43Z</time>
      </trkpt>
      <trkpt lat="48.83596" lon="2.42783">
        <ele>41</ele>
        <time>2014-05-04T10:02:01Z</time>
      </trkpt>
      <trkpt lat="48.8359" lon="2.42748">
        <ele>43</ele>
        <time>2014-05-04T10:02:23Z</time>
      </trkpt>
      <trkpt lat="48.83551" lon="2.42711">
        <ele>42</ele>
        <time>2014-05-04T10:02:58Z</time>
      </trkpt>
      <trkpt lat="48.83532" lon="2.42691">
        <ele>45</ele>
        <time>2014-05-04T10:03:16Z</time>
      </trkpt>
      <trkpt lat="48.83522" lon="2.4266">
        <ele>44</ele>
        <time>2014-05-04T10:03:35Z</time>
      </trkpt>
      <trkpt lat="48.83501" lon="2.42642">
        <ele>43</ele>
        <time>2014-05-04T10:03:54Z</time>
      </trkpt>
      <trkpt lat="48.83484" lon="2.42578">
        <ele>42</ele>
        <time>2014-05-04T10:04:30Z</time>
      </trkpt>
      <trkpt lat="48.83474" lon="2.42546">
        <ele>42</ele>
        <time>2014-05-04T10:04:47Z</time>
      </trkpt>
      <trkpt lat="48.83456" lon="2.42525">
        <ele>43</ele>
        <time>2014-05-04T10:05:06Z</time>
      </trkpt>
      <trkpt lat="48.83436" lon="2.42507">
        <ele>44</ele>
        <time>2014-05-04T10:05:23Z</time>
      </trkpt>
      <trkpt lat="48.8343" lon="2.42472">
        <ele>45</ele>
        <time>2014-05-04T10:05:39Z</time>
      </trkpt>
      <trkpt lat="48.8343" lon="2.42438">
        <ele>43</ele>
        <time>2014-05-04T10:05:56Z</time>
      </trkpt>
      <trkpt lat="48.8342" lon="2.42407">
        <ele>43</ele>
        <time>2014-05-04T10:06:12Z</time>
      </trkpt>
      <trkpt lat="48.83398" lon="2.42397">
        <ele>44</ele>
        <time>2014-05-04T10:06:29Z</time>
      </trkpt>
      <trkpt lat="48.83376" lon="2.42382">
        <ele>43</ele>
        <time>2014-05-04T10:06:49Z</time>
      </trkpt>
      <trkpt lat="48.83372" lon="2.42348">
        <ele>42</ele>
        <time>2014-05-04T10:07:10Z</time>
      </trkpt>
      <trkpt lat="48.83367" lon="2.42278">
        <ele>41</ele>
        <time>2014-05-04T10:07:45Z</time>
      </trkpt>
      <trkpt lat="48.83347" lon="2.42215">
        <ele>43</ele>
        <time>2014-05-04T10:08:19Z</time>
      </trkpt>
      <trkpt lat="48.83344" lon="2.4218">
        <ele>42</ele>
        <time>2014-05-04T10:08:36Z</time>
      </trkpt>
      <trkpt lat="48.83314" lon="2.42127">
        <ele>42</ele>
        <time>2014-05-04T10:09:14Z</time>
      </trkpt>
      <trkpt lat="48.83299" lon="2.421">
        <ele>42</ele>
        <time>2014-05-04T10:09:33Z</time>
      </trkpt>
      <trkpt lat="48.83278" lon="2.42084">
        <ele>43</ele>
        <time>2014-05-04T10:09:50Z</time>
      </trkpt>
      <trkpt lat="48.83232" lon="2.42082">
        <ele>44</ele>
        <time>2014-05-04T10:10:26Z</time>
      </trkpt>
      <trkpt lat="48.83209" lon="2.42078">
        <ele>51</ele>
        <time>2014-05-04T10:10:42Z</time>
      </trkpt>
      <trkpt lat="48.83185" lon="2.42083">
        <ele>63</ele>
        <time>2014-05-04T10:11:04Z</time>
      </trkpt>
      <trkpt lat="48.8316" lon="2.42091">
        <ele>54</ele>
        <time>2014-05-04T10:11:19Z</time>
      </trkpt>
      <trkpt lat="48.83115" lon="2.42102">
        <ele>55</ele>
        <time>2014-05-04T10:12:00Z</time>
      </trkpt>
      <trkpt lat="48.83072" lon="2.42126">
        <ele>47</ele>
        <time>2014-05-04T10:12:40Z</time>
      </trkpt>
      <trkpt lat="48.83051" lon="2.42143">
        <ele>45</ele>
        <time>2014-05-04T10:12:52Z</time>
      </trkpt>
      <trkpt lat="48.83031" lon="2.42159">
        <ele>52</ele>
        <time>2014-05-04T10:13:07Z</time>
      </trkpt>
      <trkpt lat="48.83008" lon="2.4216">
        <ele>50</ele>
        <time>2014-05-04T10:13:22Z</time>
      </trkpt>
      <trkpt lat="48.82986" lon="2.4215">
        <ele>49</ele>
        <time>2014-05-04T10:13:40Z</time>
      </trkpt>
      <trkpt lat="48.82941" lon="2.42166">
        <ele>45</ele>
        <time>2014-05-04T10:14:08Z</time>
      </trkpt>
      <trkpt lat="48.82895" lon="2.42158">
        <ele>46</ele>
        <time>2014-05-04T10:14:45Z</time>
      </trkpt>
      <trkpt lat="48.82883" lon="2.42186">
        <ele>51</ele>
        <time>2014-05-04T10:15:10Z</time>
      </trkpt>
      <trkpt lat="48.82887" lon="2.42153">
        <ele>53</ele>
        <time>2014-05-04T10:24:29Z</time>
      </trkpt>
      <trkpt lat="48.82874" lon="2.42124">
        <ele>49</ele>
        <time>2014-05-04T10:24:53Z</time>
      </trkpt>
      <trkpt lat="48.82836" lon="2.42089">
        <ele>42</ele>
        <time>2014-05-04T10:25:25Z</time>
      </trkpt>
      <trkpt lat="48.82819" lon="2.42066">
        <ele>48</ele>
        <time>2014-05-04T10:25:47Z</time>
      </trkpt>
      <trkpt lat="48.82805" lon="2.42037">
        <ele>40</ele>
        <time>2014-05-04T10:26:04Z</time>
      </trkpt>
      <trkpt lat="48.82783" lon="2.41975">
        <ele>41</ele>
        <time>2014-05-04T10:26:48Z</time>
      </trkpt>
      <trkpt lat="48.8277" lon="2.41947">
        <ele>48</ele>
        <time>2014-05-04T10:27:40Z</time>
      </trkpt>
      <trkpt lat="48.8276" lon="2.41913">
        <ele>47</ele>
        <time>2014-05-04T10:27:58Z</time>
      </trkpt>
      <trkpt lat="48.82738" lon="2.41915">
        <ele>51</ele>
        <time>2014-05-04T10:28:13Z</time>
      </trkpt>
      <trkpt lat="48.82669" lon="2.41918">
        <ele>49</ele>
        <time>2014-05-04T10:28:57Z</time>
      </trkpt>
      <trkpt lat="48.82646" lon="2.41912">
        <ele>51</ele>
        <time>2014-05-04T10:29:12Z</time>
      </trkpt>
      <trkpt lat="48.82622" lon="2.41905">
        <ele>55</ele>
        <time>2014-05-04T10:29:34Z</time>
      </trkpt>
      <trkpt lat="48.82611" lon="2.41875">
        <ele>53</ele>
        <time>2014-05-04T10:29:55Z</time>
      </trkpt>
      <trkpt lat="48.8261" lon="2.41805">
        <ele>53</ele>
        <time>2014-05-04T10:30:35Z</time>
      </trkpt>
      <trkpt lat="48.82617" lon="2.41738">
        <ele>53</ele>
        <time>2014-05-04T10:31:14Z</time>
      </trkpt>
      <trkpt lat="48.82623" lon="2.41669">
        <ele>53</ele>
        <time>2014-05-04T10:31:48Z</time>
      </trkpt>
      <trkpt lat="48.82623" lon="2.41635">
        <ele>56</ele>
        <time>2014-05-04T10:32:06Z</time>
      </trkpt>
      <trkpt lat="48.8262" lon="2.41601">
        <ele>55</ele>
        <time>2014-05-04T10:32:23Z</time>
      </trkpt>
      <trkpt lat="48.82602" lon="2.41578">
        <ele>51</ele>
        <time>2014-05-04T10:33:19Z</time>
      </trkpt>
      <trkpt lat="48.82581" lon="2.41565">
        <ele>47</ele>
        <time>2014-05-04T10:33:37Z</time>
      </trkpt>
      <trkpt lat="48.82559" lon="2.41561">
        <ele>48</ele>
        <time>2014-05-04T10:33:49Z</time>
      </trkpt>
      <trkpt lat="48.82539" lon="2.41543">
        <ele>53</ele>
        <time>2014-05-04T10:34:21Z</time>
      </trkpt>
      <trkpt lat="48.82521" lon="2.41478">
        <ele>54</ele>
        <time>2014-05-04T10:34:59Z</time>
      </trkpt>
      <trkpt lat="48.82506" lon="2.41413">
        <ele>52</ele>
        <time>2014-05-04T10:35:37Z</time>
      </trkpt>
      <trkpt lat="48.82505" lon="2.41376">
        <ele>50</ele>
        <time>2014-05-04T10:35:55Z</time>
      </trkpt>
      <trkpt lat="48.82517" lon="2.41347">
        <ele>50</ele>
        <time>2014-05-04T10:36:59Z</time>
      </trkpt>
      <trkpt lat="48.8254" lon="2.41349">
        <ele>52</ele>
        <time>2014-05-04T10:37:59Z</time>
      </trkpt>
      <trkpt lat="48.8256" lon="2.41333">
        <ele>49</ele>
        <time>2014-05-04T10:38:37Z</time>
      </trkpt>
      <trkpt lat="48.82584" lon="2.41336">
        <ele>44</ele>
        <time>2014-05-04T10:38:54Z</time>
      </trkpt>
      <trkpt lat="48.82607" lon="2.41347">
        <ele>53</ele>
        <time>2014-05-04T10:39:10Z</time>
      </trkpt>
      <trkpt lat="48.82628" lon="2.41359">
        <ele>55</ele>
        <time>2014-05-04T10:39:22Z</time>
      </trkpt>
      <trkpt lat="48.8265" lon="2.41355">
        <ele>52</ele>
        <time>2014-05-04T10:39:42Z</time>
      </trkpt>
      <trkpt lat="48.82693" lon="2.41331">
        <ele>51</ele>
        <time>2014-05-04T10:40:19Z</time>
      </trkpt>
      <trkpt lat="48.82712" lon="2.41313">
        <ele>51</ele>
        <time>2014-05-04T10:40:31Z</time>
      </trkpt>
      <trkpt lat="48.8275" lon="2.41273">
        <ele>47</ele>
        <time>2014-05-04T10:41:11Z</time>
      </trkpt>
      <trkpt lat="48.82773" lon="2.4127">
        <ele>43</ele>
        <time>2014-05-04T10:41:27Z</time>
      </trkpt>
      <trkpt lat="48.82818" lon="2.4127">
        <ele>45</ele>
        <time>2014-05-04T10:42:05Z</time>
      </trkpt>
      <trkpt lat="48.82841" lon="2.4127">
        <ele>45</ele>
        <time>2014-05-04T10:42:25Z</time>
      </trkpt>
      <trkpt lat="48.82864" lon="2.41264">
        <ele>43</ele>
        <time>2014-05-04T10:42:40Z</time>
      </trkpt>
      <trkpt lat="48.82907" lon="2.4124">
        <ele>46</ele>
        <time>2014-05-04T10:43:19Z</time>
      </trkpt>
      <trkpt lat="48.82924" lon="2.41216">
        <ele>47</ele>
        <time>2014-05-04T10:43:36Z</time>
      </trkpt>
      <trkpt lat="48.82937" lon="2.41188">
        <ele>45</ele>
        <time>2014-05-04T10:43:58Z</time>
      </trkpt>
      <trkpt lat="48.82969" lon="2.41133">
        <ele>46</ele>
        <time>2014-05-04T10:44:31Z</time>
      </trkpt>
      <trkpt lat="48.82992" lon="2.41071">
        <ele>44</ele>
        <time>2014-05-04T10:45:04Z</time>
      </trkpt>
      <trkpt lat="48.83014" lon="2.41075">
        <ele>44</ele>
        <time>2014-05-04T10:45:28Z</time>
      </trkpt>
      <trkpt lat="48.83052" lon="2.41035">
        <ele>42</ele>
        <time>2014-05-04T10:46:00Z</time>
      </trkpt>
      <trkpt lat="48.83075" lon="2.41024">
        <ele>46</ele>
        <time>2014-05-04T10:46:24Z</time>
      </trkpt>
      <trkpt lat="48.83094" lon="2.41005">
        <ele>45</ele>
        <time>2014-05-04T10:46:40Z</time>
      </trkpt>
      <trkpt lat="48.83126" lon="2.40957">
        <ele>47</ele>
        <time>2014-05-04T10:47:18Z</time>
      </trkpt>
      <trkpt lat="48.83146" lon="2.40933">
        <ele>46</ele>
        <time>2014-05-04T10:47:29Z</time>
      </trkpt>
      <trkpt lat="48.83162" lon="2.40908">
        <ele>46</ele>
        <time>2014-05-04T10:47:55Z</time>
      </trkpt>
      <trkpt lat="48.83183" lon="2.40896">
        <ele>51</ele>
        <time>2014-05-04T10:48:16Z</time>
      </trkpt>
      <trkpt lat="48.83206" lon="2.40895">
        <ele>49</ele>
        <time>2014-05-04T10:48:31Z</time>
      </trkpt>
      <trkpt lat="48.83229" lon="2.40899">
        <ele>51</ele>
        <time>2014-05-04T10:48:48Z</time>
      </trkpt>
      <trkpt lat="48.83265" lon="2.4094">
        <ele>52</ele>
        <time>2014-05-04T10:49:18Z</time>
      </trkpt>
      <trkpt lat="48.83283" lon="2.40961">
        <ele>53</ele>
        <time>2014-05-04T10:49:33Z</time>
      </trkpt>
      <trkpt lat="48.83297" lon="2.40991">
        <ele>50</ele>
        <time>2014-05-04T10:49:54Z</time>
      </trkpt>
      <trkpt lat="48.83311" lon="2.41019">
        <ele>49</ele>
        <time>2014-05-04T10:50:09Z</time>
      </trkpt>
      <trkpt lat="48.83315" lon="2.41054">
        <ele>45</ele>
        <time>2014-05-04T10:50:27Z</time>
      </trkpt>
      <trkpt lat="48.83327" lon="2.41124">
        <ele>42</ele>
        <time>2014-05-04T10:51:08Z</time>
      </trkpt>
      <trkpt lat="48.83321" lon="2.41159">
        <ele>32</ele>
        <time>2014-05-04T10:51:26Z</time>
      </trkpt>
      <trkpt lat="48.83322" lon="2.41193">
        <ele>33</ele>
        <time>2014-05-04T10:51:43Z</time>
      </trkpt>
      <trkpt lat="48.83314" lon="2.41226">
        <ele>41</ele>
        <time>2014-05-04T10:52:01Z</time>
      </trkpt>
      <trkpt lat="48.83302" lon="2.41293">
        <ele>44</ele>
        <time>2014-05-04T10:52:40Z</time>
      </trkpt>
      <trkpt lat="48.8329" lon="2.41324">
        <ele>45</ele>
        <time>2014-05-04T10:53:02Z</time>
      </trkpt>
      <trkpt lat="48.83273" lon="2.41347">
        <ele>47</ele>
        <time>2014-05-04T10:53:14Z</time>
      </trkpt>
      <trkpt lat="48.8324" lon="2.41394">
        <ele>51</ele>
        <time>2014-05-04T10:53:47Z</time>
      </trkpt>
      <trkpt lat="48.83226" lon="2.4142">
        <ele>50</ele>
        <time>2014-05-04T10:54:08Z</time>
      </trkpt>
      <trkpt lat="48.83213" lon="2.41449">
        <ele>41</ele>
        <time>2014-05-04T10:54:37Z</time>
      </trkpt>
      <trkpt lat="48.83205" lon="2.41481">
        <ele>39</ele>
        <time>2014-05-04T10:58:23Z</time>
      </trkpt>
      <trkpt lat="48.83187" lon="2.41545">
        <ele>40</ele>
        <time>2014-05-04T10:58:56Z</time>
      </trkpt>
      <trkpt lat="48.83157" lon="2.41597">
        <ele>37</ele>
        <time>2014-05-04T10:59:41Z</time>
      </trkpt>
      <trkpt lat="48.83126" lon="2.4165">
        <ele>37</ele>
        <time>2014-05-04T11:00:17Z</time>
      </trkpt>
      <trkpt lat="48.83089" lon="2.41696">
        <ele>36</ele>
        <time>2014-05-04T11:00:48Z</time>
      </trkpt>
      <trkpt lat="48.83055" lon="2.41742">
        <ele>37</ele>
        <time>2014-05-04T11:01:23Z</time>
      </trkpt>
      <trkpt lat="48.83039" lon="2.41765">
        <ele>36</ele>
        <time>2014-05-04T11:01:41Z</time>
      </trkpt>
      <trkpt lat="48.83019" lon="2.41782">
        <ele>34</ele>
        <time>2014-05-04T11:02:01Z</time>
      </trkpt>
      <trkpt lat="48.83003" lon="2.41808">
        <ele>33</ele>
        <time>2014-05-04T11:02:17Z</time>
      </trkpt>
      <trkpt lat="48.82943" lon="2.41855">
        <ele>32</ele>
        <time>2014-05-04T11:03:07Z</time>
      </trkpt>
      <trkpt lat="48.8292" lon="2.41863">
        <ele>30</ele>
        <time>2014-05-04T11:03:31Z</time>
      </trkpt>
      <trkpt lat="48.82899" lon="2.41878">
        <ele>30</ele>
        <time>2014-05-04T11:03:49Z</time>
      </trkpt>
      <trkpt lat="48.82885" lon="2.41904">
        <ele>36</ele>
        <time>2014-05-04T11:04:08Z</time>
      </trkpt>
      <trkpt lat="48.82881" lon="2.41939">
        <ele>35</ele>
        <time>2014-05-04T11:04:28Z</time>
      </trkpt>
      <trkpt lat="48.82864" lon="2.41963">
        <ele>47</ele>
        <time>2014-05-04T11:05:24Z</time>
      </trkpt>
      <trkpt lat="48.82863" lon="2.41997">
        <ele>41</ele>
        <time>2014-05-04T11:06:58Z</time>
      </trkpt>
      <trkpt lat="48.82862" lon="2.42032">
        <ele>45</ele>
        <time>2014-05-04T11:07:18Z</time>
      </trkpt>
      <trkpt lat="48.82853" lon="2.42064">
        <ele>43</ele>
        <time>2014-05-04T11:07:37Z</time>
      </trkpt>
      <trkpt lat="48.82842" lon="2.42095">
        <ele>40</ele>
        <time>2014-05-04T11:07:55Z</time>
      </trkpt>
      <trkpt lat="48.82838" lon="2.42129">
        <ele>46</ele>
        <time>2014-05-04T11:08:11Z</time>
      </trkpt>
      <trkpt lat="48.82862" lon="2.42189">
        <ele>37</ele>
        <time>2014-05-04T11:08:56Z</time>
      </trkpt>
      <trkpt lat="48.82859" lon="2.42224">
        <ele>38</ele>
        <time>2014-05-04T11:09:12Z</time>
      </trkpt>
      <trkpt lat="48.82849" lon="2.42254">
        <ele>42</ele>
        <time>2014-05-04T11:09:28Z</time>
      </trkpt>
      <trkpt lat="48.82818" lon="2.42309">
        <ele>44</ele>
        <time>2014-05-04T11:09:59Z</time>
      </trkpt>
      <trkpt lat="48.82789" lon="2.42367">
        <ele>42</ele>
        <time>2014-05-04T11:10:31Z</time>
      </trkpt>
      <trkpt lat="48.82761" lon="2.42422">
        <ele>44</ele>
        <time>2014-05-04T11:11:09Z</time>
      </trkpt>
      <trkpt lat="48.82744" lon="2.42444">
        <ele>38</ele>
        <time>2014-05-04T11:11:23Z</time>
      </trkpt>
      <trkpt lat="48.82743" lon="2.42479">
        <ele>35</ele>
        <time>2014-05-04T11:11:39Z</time>
      </trkpt>
      <trkpt lat="48.8276" lon="2.42501">
        <ele>46</ele>
        <time>2014-05-04T11:12:02Z</time>
      </trkpt>
      <trkpt lat="48.82803" lon="2.42521">
        <ele>45</ele>
        <time>2014-05-04T11:12:49Z</time>
      </trkpt>
      <trkpt lat="48.82817" lon="2.4255">
        <ele>45</ele>
        <time>2014-05-04T11:13:06Z</time>
      </trkpt>
      <trkpt lat="48.82835" lon="2.42572">
        <ele>38</ele>
        <time>2014-05-04T11:13:23Z</time>
      </trkpt>
      <trkpt lat="48.82875" lon="2.42606">
        <ele>39</ele>
        <time>2014-05-04T11:13:59Z</time>
      </trkpt>
      <trkpt lat="48.82893" lon="2.42629">
        <ele>38</ele>
        <time>2014-05-04T11:14:16Z</time>
      </trkpt>
      <trkpt lat="48.82895" lon="2.42663">
        <ele>53</ele>
        <time>2014-05-04T11:20:31Z</time>
      </trkpt>
      <trkpt lat="48.82909" lon="2.42691">
        <ele>55</ele>
        <time>2014-05-04T11:21:26Z</time>
      </trkpt>
      <trkpt lat="48.82932" lon="2.42681">
        <ele>45</ele>
        <time>2014-05-04T11:21:56Z</time>
      </trkpt>
      <trkpt lat="48.82956" lon="2.42677">
        <ele>45</ele>
        <time>2014-05-04T11:22:06Z</time>
      </trkpt>
      <trkpt lat="48.82976" lon="2.4266">
        <ele>50</ele>
        <time>2014-05-04T11:22:26Z</time>
      </trkpt>
      <trkpt lat="48.82995" lon="2.42638">
        <ele>47</ele>
        <time>2014-05-04T11:22:38Z</time>
      </trkpt>
      <trkpt lat="48.83015" lon="2.4262">
        <ele>54</ele>
        <time>2014-05-04T11:22:56Z</time>
      </trkpt>
      <trkpt lat="48.83018" lon="2.42551">
        <ele>51</ele>
        <time>2014-05-04T11:23:29Z</time>
      </trkpt>
      <trkpt lat="48.83015" lon="2.42516">
        <ele>50</ele>
        <time>2014-05-04T11:23:47Z</time>
      </trkpt>
      <trkpt lat="48.83008" lon="2.42483">
        <ele>47</ele>
        <time>2014-05-04T11:24:05Z</time>
      </trkpt>
      <trkpt lat="48.82998" lon="2.42452">
        <ele>52</ele>
        <time>2014-05-04T11:24:22Z</time>
      </trkpt>
      <trkpt lat="48.82981" lon="2.42387">
        <ele>50</ele>
        <time>2014-05-04T11:24:55Z</time>
      </trkpt>
      <trkpt lat="48.83003" lon="2.42377">
        <ele>57</ele>
        <time>2014-05-04T11:25:47Z</time>
      </trkpt>
      <trkpt lat="48.83026" lon="2.42378">
        <ele>60</ele>
        <time>2014-05-04T11:26:04Z</time>
      </trkpt>
      <trkpt lat="48.83048" lon="2.42372">
        <ele>61</ele>
        <time>2014-05-04T11:26:25Z</time>
      </trkpt>
      <trkpt lat="48.83071" lon="2.42367">
        <ele>62</ele>
        <time>2014-05-04T11:26:42Z</time>
      </trkpt>
      <trkpt lat="48.83116" lon="2.42353">
        <ele>53</ele>
        <time>2014-05-04T11:27:14Z</time>
      </trkpt>
      <trkpt lat="48.83139" lon="2.42352">
        <ele>60</ele>
        <time>2014-05-04T11:27:32Z</time>
      </trkpt>
      <trkpt lat="48.83184" lon="2.42337">
        <ele>56</ele>
        <time>2014-05-04T11:28:05Z</time>
      </trkpt>
      <trkpt lat="48.83207" lon="2.4233">
        <ele>55</ele>
        <time>2014-05-04T11:28:24Z</time>
      </trkpt>
      <trkpt lat="48.83253" lon="2.42317">
        <ele>53</ele>
        <time>2014-05-04T11:29:15Z</time>
      </trkpt>
      <trkpt lat="48.83299" lon="2.4231">
        <ele>55</ele>
        <time>2014-05-04T11:29:41Z</time>
      </trkpt>
    </trkseg>
  </trk>
</gpx>